sensor_id;sensor_type;location;lat;lon;timestamp;temperature;humidity
1702;DHT22;848;48.354;10.064;2023-08-17T00:01:33;19.40;99.90
1702;DHT22;848;48.354;10.064;2023-08-17T00:04:02;19.40;99.90
1702;DHT22;848;48.354;10.064;2023-08-17T00:06:29;19.40;99.90
1702;DHT22;848;48.354;10.064;2023-08-17T00:08:56;19.40;99.90
1702;DHT22;848;48.354;10.064;2023-08-17T00:11:23;19.40;99.90
1702;DHT22;848;48.354;10.064;2023-08-17T00:13:50;19.40;99.90
1702;DHT22;848;48.354;10.064;2023-08-17T00:16:17;19.30;99.90
1702;DHT22;848;48.354;10.064;2023-08-17T00:18:44;19.30;99.90
1702;DHT22;848;48.354;10.064;2023-08-17T00:21:12;19.30;99.90
1702;DHT22;848;48.354;10.064;2023-08-17T00:23:39;19.30;99.90
1702;DHT22;848;48.354;10.064;2023-08-17T00:26:06;19.30;99.90
1702;DHT22;848;48.354;10.064;2023-08-17T00:28:33;19.20;99.90
1702;DHT22;848;48.354;10.064;2023-08-17T00:31:00;19.20;99.90
1702;DHT22;848;48.354;10.064;2023-08-17T00:33:27;19.10;99.90
1702;DHT22;848;48.354;10.064;2023-08-17T00:35:54;19.10;99.90
1702;DHT22;848;48.354;10.064;2023-08-17T00:38:23;19.10;99.90
1702;DHT22;848;48.354;10.064;2023-08-17T00:40:49;19.00;99.90
1702;DHT22;848;48.354;10.064;2023-08-17T00:43:16;19.00;99.90
1702;DHT22;848;48.354;10.064;2023-08-17T00:45:44;18.90;99.90
1702;DHT22;848;48.354;10.064;2023-08-17T00:48:13;18.90;99.90
1702;DHT22;848;48.354;10.064;2023-08-17T00:50:41;18.90;99.90
1702;DHT22;848;48.354;10.064;2023-08-17T00:53:08;18.80;99.90
1702;DHT22;848;48.354;10.064;2023-08-17T00:55:40;18.70;99.90
1702;DHT22;848;48.354;10.064;2023-08-17T00:58:07;18.60;99.90
1702;DHT22;848;48.354;10.064;2023-08-17T01:00:34;18.60;99.90
1702;DHT22;848;48.354;10.064;2023-08-17T01:03:01;18.60;99.90
1702;DHT22;848;48.354;10.064;2023-08-17T01:05:28;18.60;99.90
1702;DHT22;848;48.354;10.064;2023-08-17T01:07:56;18.60;99.90
1702;DHT22;848;48.354;10.064;2023-08-17T01:10:26;18.70;99.90
1702;DHT22;848;48.354;10.064;2023-08-17T01:13:03;18.60;99.90
1702;DHT22;848;48.354;10.064;2023-08-17T01:15:35;18.70;99.90
1702;DHT22;848;48.354;10.064;2023-08-17T01:18:11;18.70;99.90
1702;DHT22;848;48.354;10.064;2023-08-17T01:20:40;18.70;99.90
1702;DHT22;848;48.354;10.064;2023-08-17T01:23:09;18.70;99.90
1702;DHT22;848;48.354;10.064;2023-08-17T01:25:36;18.60;99.90
1702;DHT22;848;48.354;10.064;2023-08-17T01:28:04;18.60;99.90
1702;DHT22;848;48.354;10.064;2023-08-17T01:30:34;18.60;99.90
1702;DHT22;848;48.354;10.064;2023-08-17T01:33:07;18.70;99.90
1702;DHT22;848;48.354;10.064;2023-08-17T01:35:39;18.70;99.90
1702;DHT22;848;48.354;10.064;2023-08-17T01:38:12;18.60;99.90
1702;DHT22;848;48.354;10.064;2023-08-17T01:40:41;18.60;99.90
1702;DHT22;848;48.354;10.064;2023-08-17T01:43:10;18.50;99.90
1702;DHT22;848;48.354;10.064;2023-08-17T01:45:38;18.50;99.90
1702;DHT22;848;48.354;10.064;2023-08-17T01:48:05;18.50;99.90
1702;DHT22;848;48.354;10.064;2023-08-17T01:50:32;18.50;99.90
1702;DHT22;848;48.354;10.064;2023-08-17T01:52:59;18.50;99.90
1702;DHT22;848;48.354;10.064;2023-08-17T01:55:27;18.50;99.90
1702;DHT22;848;48.354;10.064;2023-08-17T01:57:54;18.40;99.90
1702;DHT22;848;48.354;10.064;2023-08-17T02:00:21;18.40;99.90
1702;DHT22;848;48.354;10.064;2023-08-17T02:02:48;18.40;99.90
1702;DHT22;848;48.354;10.064;2023-08-17T02:05:15;18.50;99.90
1702;DHT22;848;48.354;10.064;2023-08-17T02:07:42;18.40;99.90
1702;DHT22;848;48.354;10.064;2023-08-17T02:10:09;18.50;99.90
1702;DHT22;848;48.354;10.064;2023-08-17T02:12:37;18.60;99.90
1702;DHT22;848;48.354;10.064;2023-08-17T02:15:05;18.50;99.90
1702;DHT22;848;48.354;10.064;2023-08-17T02:17:32;18.60;99.90
1702;DHT22;848;48.354;10.064;2023-08-17T02:19:59;18.70;99.90
1702;DHT22;848;48.354;10.064;2023-08-17T02:22:26;18.70;99.90
1702;DHT22;848;48.354;10.064;2023-08-17T02:24:52;18.60;99.90
1702;DHT22;848;48.354;10.064;2023-08-17T02:27:19;18.50;99.90
1702;DHT22;848;48.354;10.064;2023-08-17T02:29:48;18.30;99.90
1702;DHT22;848;48.354;10.064;2023-08-17T02:32:14;18.20;99.90
1702;DHT22;848;48.354;10.064;2023-08-17T02:34:41;18.20;99.90
1702;DHT22;848;48.354;10.064;2023-08-17T02:37:08;18.10;99.90
1702;DHT22;848;48.354;10.064;2023-08-17T02:39:35;18.10;99.90
1702;DHT22;848;48.354;10.064;2023-08-17T02:42:02;18.10;99.90
1702;DHT22;848;48.354;10.064;2023-08-17T02:44:29;18.10;99.90
1702;DHT22;848;48.354;10.064;2023-08-17T02:46:57;18.10;99.90
1702;DHT22;848;48.354;10.064;2023-08-17T02:49:25;18.00;99.90
1702;DHT22;848;48.354;10.064;2023-08-17T02:51:52;18.10;99.90
1702;DHT22;848;48.354;10.064;2023-08-17T02:54:19;18.00;99.90
1702;DHT22;848;48.354;10.064;2023-08-17T02:56:46;17.80;99.90
1702;DHT22;848;48.354;10.064;2023-08-17T02:59:13;17.70;99.90
1702;DHT22;848;48.354;10.064;2023-08-17T03:01:40;17.70;99.90
1702;DHT22;848;48.354;10.064;2023-08-17T03:04:08;17.70;99.90
1702;DHT22;848;48.354;10.064;2023-08-17T03:06:35;17.60;99.90
1702;DHT22;848;48.354;10.064;2023-08-17T03:09:02;17.60;99.90
1702;DHT22;848;48.354;10.064;2023-08-17T03:11:29;17.60;99.90
1702;DHT22;848;48.354;10.064;2023-08-17T03:13:56;17.60;99.90
1702;DHT22;848;48.354;10.064;2023-08-17T03:16:25;17.70;99.90
1702;DHT22;848;48.354;10.064;2023-08-17T03:18:52;17.70;99.90
1702;DHT22;848;48.354;10.064;2023-08-17T03:21:20;17.70;99.90
1702;DHT22;848;48.354;10.064;2023-08-17T03:23:48;17.70;99.90
1702;DHT22;848;48.354;10.064;2023-08-17T03:26:15;17.70;99.90
1702;DHT22;848;48.354;10.064;2023-08-17T03:28:42;17.60;99.90
1702;DHT22;848;48.354;10.064;2023-08-17T03:31:09;17.60;99.90
1702;DHT22;848;48.354;10.064;2023-08-17T03:33:36;17.60;99.90
1702;DHT22;848;48.354;10.064;2023-08-17T03:36:03;17.60;99.90
1702;DHT22;848;48.354;10.064;2023-08-17T03:38:32;17.60;99.90
1702;DHT22;848;48.354;10.064;2023-08-17T03:40:58;17.60;99.90
1702;DHT22;848;48.354;10.064;2023-08-17T03:43:27;17.70;99.90
1702;DHT22;848;48.354;10.064;2023-08-17T03:45:54;17.70;99.90
1702;DHT22;848;48.354;10.064;2023-08-17T03:48:20;17.70;99.90
1702;DHT22;848;48.354;10.064;2023-08-17T03:50:51;17.70;99.90
1702;DHT22;848;48.354;10.064;2023-08-17T03:53:18;17.70;99.90
1702;DHT22;848;48.354;10.064;2023-08-17T03:55:47;17.70;99.90
1702;DHT22;848;48.354;10.064;2023-08-17T03:58:14;17.70;99.90
1702;DHT22;848;48.354;10.064;2023-08-17T04:00:41;17.70;99.90
1702;DHT22;848;48.354;10.064;2023-08-17T04:03:08;17.50;99.90
1702;DHT22;848;48.354;10.064;2023-08-17T04:05:35;17.50;99.90
1702;DHT22;848;48.354;10.064;2023-08-17T04:08:02;17.40;99.90
1702;DHT22;848;48.354;10.064;2023-08-17T04:10:29;17.40;99.90
1702;DHT22;848;48.354;10.064;2023-08-17T04:12:58;17.40;99.90
1702;DHT22;848;48.354;10.064;2023-08-17T04:15:24;17.40;99.90
1702;DHT22;848;48.354;10.064;2023-08-17T04:17:51;17.50;99.90
1702;DHT22;848;48.354;10.064;2023-08-17T04:20:18;17.50;99.90
1702;DHT22;848;48.354;10.064;2023-08-17T04:22:45;17.50;99.90
1702;DHT22;848;48.354;10.064;2023-08-17T04:25:13;17.60;99.90
1702;DHT22;848;48.354;10.064;2023-08-17T04:27:40;17.60;99.90
1702;DHT22;848;48.354;10.064;2023-08-17T04:30:09;17.60;99.90
1702;DHT22;848;48.354;10.064;2023-08-17T04:32:36;17.50;99.90
1702;DHT22;848;48.354;10.064;2023-08-17T04:35:04;17.50;99.90
1702;DHT22;848;48.354;10.064;2023-08-17T04:37:31;17.50;99.90
1702;DHT22;848;48.354;10.064;2023-08-17T04:39:58;17.50;99.90
1702;DHT22;848;48.354;10.064;2023-08-17T04:42:25;17.60;99.90
1702;DHT22;848;48.354;10.064;2023-08-17T04:44:52;17.70;99.90
1702;DHT22;848;48.354;10.064;2023-08-17T04:47:20;17.80;99.90
1702;DHT22;848;48.354;10.064;2023-08-17T04:49:47;17.80;99.90
1702;DHT22;848;48.354;10.064;2023-08-17T04:52:15;17.80;99.90
1702;DHT22;848;48.354;10.064;2023-08-17T04:54:41;17.80;99.90
1702;DHT22;848;48.354;10.064;2023-08-17T04:57:08;17.80;99.90
1702;DHT22;848;48.354;10.064;2023-08-17T04:59:36;17.80;99.90
1702;DHT22;848;48.354;10.064;2023-08-17T05:02:03;17.70;99.90
1702;DHT22;848;48.354;10.064;2023-08-17T05:04:31;17.70;99.90
1702;DHT22;848;48.354;10.064;2023-08-17T05:06:58;17.80;99.90
1702;DHT22;848;48.354;10.064;2023-08-17T05:09:26;17.80;99.90
1702;DHT22;848;48.354;10.064;2023-08-17T05:11:53;17.90;99.90
1702;DHT22;848;48.354;10.064;2023-08-17T05:14:20;18.00;99.90
1702;DHT22;848;48.354;10.064;2023-08-17T05:16:46;18.20;99.90
1702;DHT22;848;48.354;10.064;2023-08-17T05:19:13;18.30;99.90
1702;DHT22;848;48.354;10.064;2023-08-17T05:21:42;18.40;99.90
1702;DHT22;848;48.354;10.064;2023-08-17T05:24:09;18.50;99.90
1702;DHT22;848;48.354;10.064;2023-08-17T05:26:36;18.60;99.90
1702;DHT22;848;48.354;10.064;2023-08-17T05:29:03;18.70;99.90
1702;DHT22;848;48.354;10.064;2023-08-17T05:31:30;18.80;99.90
1702;DHT22;848;48.354;10.064;2023-08-17T05:33:57;18.90;99.90
1702;DHT22;848;48.354;10.064;2023-08-17T05:36:24;19.00;99.90
1702;DHT22;848;48.354;10.064;2023-08-17T05:38:53;19.10;99.90
1702;DHT22;848;48.354;10.064;2023-08-17T05:41:20;19.20;99.90
1702;DHT22;848;48.354;10.064;2023-08-17T05:43:48;19.30;99.90
1702;DHT22;848;48.354;10.064;2023-08-17T05:46:15;19.40;99.90
1702;DHT22;848;48.354;10.064;2023-08-17T05:48:41;19.50;99.90
1702;DHT22;848;48.354;10.064;2023-08-17T05:51:08;19.60;99.90
1702;DHT22;848;48.354;10.064;2023-08-17T05:53:35;19.70;99.90
1702;DHT22;848;48.354;10.064;2023-08-17T05:56:03;19.80;99.90
1702;DHT22;848;48.354;10.064;2023-08-17T05:58:30;19.90;99.90
1702;DHT22;848;48.354;10.064;2023-08-17T06:01:04;20.00;99.90
1702;DHT22;848;48.354;10.064;2023-08-17T06:03:31;20.10;99.90
1702;DHT22;848;48.354;10.064;2023-08-17T06:05:58;20.30;99.90
1702;DHT22;848;48.354;10.064;2023-08-17T06:08:25;20.30;99.90
1702;DHT22;848;48.354;10.064;2023-08-17T06:10:52;20.30;99.90
1702;DHT22;848;48.354;10.064;2023-08-17T06:13:20;20.30;99.90
1702;DHT22;848;48.354;10.064;2023-08-17T06:15:47;20.50;99.90
1702;DHT22;848;48.354;10.064;2023-08-17T06:18:14;20.60;99.90
1702;DHT22;848;48.354;10.064;2023-08-17T06:20:41;20.80;99.90
1702;DHT22;848;48.354;10.064;2023-08-17T06:23:08;21.00;99.90
1702;DHT22;848;48.354;10.064;2023-08-17T06:25:35;21.40;99.90
1702;DHT22;848;48.354;10.064;2023-08-17T06:28:02;21.90;99.90
1702;DHT22;848;48.354;10.064;2023-08-17T06:30:30;22.50;99.90
1702;DHT22;848;48.354;10.064;2023-08-17T06:32:57;23.30;99.90
1702;DHT22;848;48.354;10.064;2023-08-17T06:35:24;23.80;99.90
1702;DHT22;848;48.354;10.064;2023-08-17T06:37:51;24.40;99.90
1702;DHT22;848;48.354;10.064;2023-08-17T06:40:22;25.00;99.90
1702;DHT22;848;48.354;10.064;2023-08-17T06:42:49;25.80;99.90
1702;DHT22;848;48.354;10.064;2023-08-17T06:45:16;26.50;99.90
1702;DHT22;848;48.354;10.064;2023-08-17T06:47:45;27.20;99.90
1702;DHT22;848;48.354;10.064;2023-08-17T06:50:14;27.70;99.90
1702;DHT22;848;48.354;10.064;2023-08-17T06:52:41;27.90;99.90
1702;DHT22;848;48.354;10.064;2023-08-17T06:55:08;28.10;99.90
1702;DHT22;848;48.354;10.064;2023-08-17T06:57:35;27.90;99.90
1702;DHT22;848;48.354;10.064;2023-08-17T07:00:03;27.90;99.90
1702;DHT22;848;48.354;10.064;2023-08-17T07:02:31;28.20;99.90
1702;DHT22;848;48.354;10.064;2023-08-17T07:05:00;28.60;99.90
1702;DHT22;848;48.354;10.064;2023-08-17T07:07:27;28.20;99.90
1702;DHT22;848;48.354;10.064;2023-08-17T07:09:53;28.50;99.90
1702;DHT22;848;48.354;10.064;2023-08-17T07:12:20;28.90;99.90
1702;DHT22;848;48.354;10.064;2023-08-17T07:14:49;28.90;99.90
1702;DHT22;848;48.354;10.064;2023-08-17T07:17:16;28.50;99.90
1702;DHT22;848;48.354;10.064;2023-08-17T07:19:43;27.90;99.90
1702;DHT22;848;48.354;10.064;2023-08-17T07:22:11;27.60;99.90
1702;DHT22;848;48.354;10.064;2023-08-17T07:24:38;27.20;99.90
1702;DHT22;848;48.354;10.064;2023-08-17T07:27:05;27.00;99.90
1702;DHT22;848;48.354;10.064;2023-08-17T07:29:32;26.90;99.90
1702;DHT22;848;48.354;10.064;2023-08-17T07:31:59;26.80;99.90
1702;DHT22;848;48.354;10.064;2023-08-17T07:34:27;26.70;99.90
1702;DHT22;848;48.354;10.064;2023-08-17T07:36:55;26.60;99.90
1702;DHT22;848;48.354;10.064;2023-08-17T07:39:24;26.30;99.90
1702;DHT22;848;48.354;10.064;2023-08-17T07:41:50;25.90;99.90
1702;DHT22;848;48.354;10.064;2023-08-17T07:44:17;25.70;99.90
1702;DHT22;848;48.354;10.064;2023-08-17T07:46:44;25.50;99.90
1702;DHT22;848;48.354;10.064;2023-08-17T07:49:11;25.50;99.90
1702;DHT22;848;48.354;10.064;2023-08-17T07:51:38;25.40;99.90
1702;DHT22;848;48.354;10.064;2023-08-17T07:54:05;25.30;99.90
1702;DHT22;848;48.354;10.064;2023-08-17T07:56:33;25.30;99.90
1702;DHT22;848;48.354;10.064;2023-08-17T07:59:00;25.30;99.90
1702;DHT22;848;48.354;10.064;2023-08-17T08:01:27;25.40;99.90
1702;DHT22;848;48.354;10.064;2023-08-17T08:03:54;25.50;99.90
1702;DHT22;848;48.354;10.064;2023-08-17T08:06:20;25.60;99.90
1702;DHT22;848;48.354;10.064;2023-08-17T08:08:48;25.50;99.90
1702;DHT22;848;48.354;10.064;2023-08-17T08:11:15;25.60;99.90
1702;DHT22;848;48.354;10.064;2023-08-17T08:13:43;25.70;99.90
1702;DHT22;848;48.354;10.064;2023-08-17T08:16:10;25.90;99.90
1702;DHT22;848;48.354;10.064;2023-08-17T08:18:37;26.20;99.90
1702;DHT22;848;48.354;10.064;2023-08-17T08:21:04;26.20;99.90
1702;DHT22;848;48.354;10.064;2023-08-17T08:23:31;26.30;99.90
1702;DHT22;848;48.354;10.064;2023-08-17T08:25:58;26.60;99.90
1702;DHT22;848;48.354;10.064;2023-08-17T08:28:25;27.00;99.90
1702;DHT22;848;48.354;10.064;2023-08-17T08:30:53;27.20;99.90
1702;DHT22;848;48.354;10.064;2023-08-17T08:33:20;27.60;99.90
1702;DHT22;848;48.354;10.064;2023-08-17T08:35:47;28.20;99.90
1702;DHT22;848;48.354;10.064;2023-08-17T08:38:14;28.50;99.90
1702;DHT22;848;48.354;10.064;2023-08-17T08:40:42;28.10;99.90
1702;DHT22;848;48.354;10.064;2023-08-17T08:43:10;27.60;99.90
1702;DHT22;848;48.354;10.064;2023-08-17T08:45:38;27.40;99.90
1702;DHT22;848;48.354;10.064;2023-08-17T08:48:11;27.30;99.90
1702;DHT22;848;48.354;10.064;2023-08-17T08:50:40;27.00;99.90
1702;DHT22;848;48.354;10.064;2023-08-17T08:53:11;27.00;99.90
1702;DHT22;848;48.354;10.064;2023-08-17T08:55:45;27.00;99.90
1702;DHT22;848;48.354;10.064;2023-08-17T08:58:16;26.90;99.90
1702;DHT22;848;48.354;10.064;2023-08-17T09:00:46;27.10;99.90
1702;DHT22;848;48.354;10.064;2023-08-17T09:03:15;27.10;99.90
1702;DHT22;848;48.354;10.064;2023-08-17T09:05:45;27.20;99.90
1702;DHT22;848;48.354;10.064;2023-08-17T09:08:15;27.50;99.90
1702;DHT22;848;48.354;10.064;2023-08-17T09:10:42;27.50;99.90
1702;DHT22;848;48.354;10.064;2023-08-17T09:13:10;27.60;99.90
1702;DHT22;848;48.354;10.064;2023-08-17T09:15:37;27.80;99.90
1702;DHT22;848;48.354;10.064;2023-08-17T09:18:05;28.10;99.90
1702;DHT22;848;48.354;10.064;2023-08-17T09:20:39;28.20;99.90
1702;DHT22;848;48.354;10.064;2023-08-17T09:23:12;28.40;99.90
1702;DHT22;848;48.354;10.064;2023-08-17T09:25:40;28.30;99.90
1702;DHT22;848;48.354;10.064;2023-08-17T09:28:08;28.30;99.90
1702;DHT22;848;48.354;10.064;2023-08-17T09:30:49;28.40;99.90
1702;DHT22;848;48.354;10.064;2023-08-17T09:33:18;28.30;99.90
1702;DHT22;848;48.354;10.064;2023-08-17T09:35:47;28.20;99.90
1702;DHT22;848;48.354;10.064;2023-08-17T09:38:14;28.30;99.90
1702;DHT22;848;48.354;10.064;2023-08-17T09:40:41;28.40;99.90
1702;DHT22;848;48.354;10.064;2023-08-17T09:43:08;28.30;99.90
1702;DHT22;848;48.354;10.064;2023-08-17T09:45:36;28.30;99.90
1702;DHT22;848;48.354;10.064;2023-08-17T09:48:04;28.30;99.90
1702;DHT22;848;48.354;10.064;2023-08-17T09:50:31;28.40;99.90
1702;DHT22;848;48.354;10.064;2023-08-17T09:52:59;28.50;99.90
1702;DHT22;848;48.354;10.064;2023-08-17T09:55:26;28.40;99.90
1702;DHT22;848;48.354;10.064;2023-08-17T09:57:54;28.40;99.90
1702;DHT22;848;48.354;10.064;2023-08-17T10:00:21;28.40;99.90
1702;DHT22;848;48.354;10.064;2023-08-17T10:02:49;28.40;99.90
1702;DHT22;848;48.354;10.064;2023-08-17T10:05:19;28.40;99.90
1702;DHT22;848;48.354;10.064;2023-08-17T10:07:50;28.50;99.90
1702;DHT22;848;48.354;10.064;2023-08-17T10:10:23;28.50;99.90
1702;DHT22;848;48.354;10.064;2023-08-17T10:12:57;28.50;99.90
1702;DHT22;848;48.354;10.064;2023-08-17T10:15:29;28.40;99.90
1702;DHT22;848;48.354;10.064;2023-08-17T10:18:02;28.50;99.90
1702;DHT22;848;48.354;10.064;2023-08-17T10:20:31;28.50;99.90
1702;DHT22;848;48.354;10.064;2023-08-17T10:23:07;28.50;99.90
1702;DHT22;848;48.354;10.064;2023-08-17T10:25:38;28.40;99.90
1702;DHT22;848;48.354;10.064;2023-08-17T10:28:08;28.20;99.90
1702;DHT22;848;48.354;10.064;2023-08-17T10:30:36;28.00;99.90
1702;DHT22;848;48.354;10.064;2023-08-17T10:33:04;28.00;99.90
1702;DHT22;848;48.354;10.064;2023-08-17T10:35:32;27.90;99.90
1702;DHT22;848;48.354;10.064;2023-08-17T10:37:59;27.90;99.90
1702;DHT22;848;48.354;10.064;2023-08-17T10:40:27;27.90;99.90
1702;DHT22;848;48.354;10.064;2023-08-17T10:42:55;27.90;99.90
1702;DHT22;848;48.354;10.064;2023-08-17T10:45:27;27.90;99.90
1702;DHT22;848;48.354;10.064;2023-08-17T10:48:25;27.90;99.90
1702;DHT22;848;48.354;10.064;2023-08-17T10:51:01;27.80;99.90
1702;DHT22;848;48.354;10.064;2023-08-17T10:53:34;27.60;99.90
1702;DHT22;848;48.354;10.064;2023-08-17T10:56:01;27.60;99.90
1702;DHT22;848;48.354;10.064;2023-08-17T10:58:34;27.70;99.90
1702;DHT22;848;48.354;10.064;2023-08-17T11:01:01;27.70;99.90
1702;DHT22;848;48.354;10.064;2023-08-17T11:03:28;27.70;99.90
1702;DHT22;848;48.354;10.064;2023-08-17T11:05:56;27.70;99.90
1702;DHT22;848;48.354;10.064;2023-08-17T11:08:27;27.70;99.90
1702;DHT22;848;48.354;10.064;2023-08-17T11:10:59;27.60;99.90
1702;DHT22;848;48.354;10.064;2023-08-17T11:13:29;27.50;99.90
1702;DHT22;848;48.354;10.064;2023-08-17T11:15:58;27.30;99.90
1702;DHT22;848;48.354;10.064;2023-08-17T11:18:26;27.40;99.90
1702;DHT22;848;48.354;10.064;2023-08-17T11:20:53;27.30;99.90
1702;DHT22;848;48.354;10.064;2023-08-17T11:23:22;27.30;99.90
1702;DHT22;848;48.354;10.064;2023-08-17T11:25:49;27.30;99.90
1702;DHT22;848;48.354;10.064;2023-08-17T11:28:17;27.40;99.90
1702;DHT22;848;48.354;10.064;2023-08-17T11:30:44;27.50;99.90
1702;DHT22;848;48.354;10.064;2023-08-17T11:33:12;27.60;99.90
1702;DHT22;848;48.354;10.064;2023-08-17T11:35:39;27.60;99.90
1702;DHT22;848;48.354;10.064;2023-08-17T11:38:07;27.60;99.90
1702;DHT22;848;48.354;10.064;2023-08-17T11:40:34;27.60;99.90
1702;DHT22;848;48.354;10.064;2023-08-17T11:43:01;27.60;99.90
1702;DHT22;848;48.354;10.064;2023-08-17T11:45:28;27.50;99.90
1702;DHT22;848;48.354;10.064;2023-08-17T11:47:56;27.50;99.90
1702;DHT22;848;48.354;10.064;2023-08-17T11:50:24;27.50;99.90
1702;DHT22;848;48.354;10.064;2023-08-17T11:52:51;27.50;99.90
1702;DHT22;848;48.354;10.064;2023-08-17T11:55:18;27.60;99.90
1702;DHT22;848;48.354;10.064;2023-08-17T11:57:46;27.70;99.90
1702;DHT22;848;48.354;10.064;2023-08-17T12:00:18;27.80;99.90
1702;DHT22;848;48.354;10.064;2023-08-17T12:02:49;27.80;99.90
1702;DHT22;848;48.354;10.064;2023-08-17T12:05:24;27.70;99.90
1702;DHT22;848;48.354;10.064;2023-08-17T12:07:53;27.60;99.90
1702;DHT22;848;48.354;10.064;2023-08-17T12:10:20;27.60;99.90
1702;DHT22;848;48.354;10.064;2023-08-17T12:12:48;27.60;99.90
1702;DHT22;848;48.354;10.064;2023-08-17T12:15:16;27.60;99.90
1702;DHT22;848;48.354;10.064;2023-08-17T12:17:45;27.60;99.90
1702;DHT22;848;48.354;10.064;2023-08-17T12:20:16;27.60;99.90
1702;DHT22;848;48.354;10.064;2023-08-17T12:22:45;27.70;99.90
1702;DHT22;848;48.354;10.064;2023-08-17T12:25:12;27.60;99.90
1702;DHT22;848;48.354;10.064;2023-08-17T12:27:39;27.60;99.90
1702;DHT22;848;48.354;10.064;2023-08-17T12:30:23;27.50;99.90
1702;DHT22;848;48.354;10.064;2023-08-17T12:32:50;27.50;99.90
1702;DHT22;848;48.354;10.064;2023-08-17T12:35:17;27.50;99.90
1702;DHT22;848;48.354;10.064;2023-08-17T12:37:48;27.50;99.90
1702;DHT22;848;48.354;10.064;2023-08-17T12:40:15;27.50;99.90
1702;DHT22;848;48.354;10.064;2023-08-17T12:42:42;27.50;99.90
1702;DHT22;848;48.354;10.064;2023-08-17T12:45:09;27.60;99.90
1702;DHT22;848;48.354;10.064;2023-08-17T12:47:36;27.60;99.90
1702;DHT22;848;48.354;10.064;2023-08-17T12:50:03;27.60;99.90
1702;DHT22;848;48.354;10.064;2023-08-17T12:52:30;27.60;99.90
1702;DHT22;848;48.354;10.064;2023-08-17T12:54:59;27.60;99.90
1702;DHT22;848;48.354;10.064;2023-08-17T12:57:26;27.60;99.90
1702;DHT22;848;48.354;10.064;2023-08-17T12:59:53;27.50;99.90
1702;DHT22;848;48.354;10.064;2023-08-17T13:02:20;27.50;99.90
1702;DHT22;848;48.354;10.064;2023-08-17T13:04:47;27.40;99.90
1702;DHT22;848;48.354;10.064;2023-08-17T13:07:14;27.40;99.90
1702;DHT22;848;48.354;10.064;2023-08-17T13:09:41;27.50;99.90
1702;DHT22;848;48.354;10.064;2023-08-17T13:12:12;27.50;99.90
1702;DHT22;848;48.354;10.064;2023-08-17T13:14:39;27.60;99.90
1702;DHT22;848;48.354;10.064;2023-08-17T13:17:06;27.70;99.90
1702;DHT22;848;48.354;10.064;2023-08-17T13:19:32;27.90;99.90
1702;DHT22;848;48.354;10.064;2023-08-17T13:21:59;28.00;99.90
1702;DHT22;848;48.354;10.064;2023-08-17T13:24:28;28.20;99.90
1702;DHT22;848;48.354;10.064;2023-08-17T13:26:55;28.20;99.90
1702;DHT22;848;48.354;10.064;2023-08-17T13:29:24;28.20;99.90
1702;DHT22;848;48.354;10.064;2023-08-17T13:31:51;28.10;99.90
1702;DHT22;848;48.354;10.064;2023-08-17T13:34:18;28.10;99.90
1702;DHT22;848;48.354;10.064;2023-08-17T13:36:44;28.20;99.90
1702;DHT22;848;48.354;10.064;2023-08-17T13:39:11;28.00;99.90
1702;DHT22;848;48.354;10.064;2023-08-17T13:41:38;27.40;99.90
1702;DHT22;848;48.354;10.064;2023-08-17T13:44:06;26.80;99.90
1702;DHT22;848;48.354;10.064;2023-08-17T13:46:34;26.40;99.90
1702;DHT22;848;48.354;10.064;2023-08-17T13:49:01;26.10;99.90
1702;DHT22;848;48.354;10.064;2023-08-17T13:51:28;25.80;99.90
1702;DHT22;848;48.354;10.064;2023-08-17T13:53:54;25.60;99.90
1702;DHT22;848;48.354;10.064;2023-08-17T13:56:21;25.40;99.90
1702;DHT22;848;48.354;10.064;2023-08-17T13:58:48;25.30;99.90
1702;DHT22;848;48.354;10.064;2023-08-17T14:01:15;25.20;99.90
1702;DHT22;848;48.354;10.064;2023-08-17T14:03:44;25.00;99.90
1702;DHT22;848;48.354;10.064;2023-08-17T14:06:11;24.70;99.90
1702;DHT22;848;48.354;10.064;2023-08-17T14:08:38;24.50;99.90
1702;DHT22;848;48.354;10.064;2023-08-17T14:11:04;24.30;99.90
1702;DHT22;848;48.354;10.064;2023-08-17T14:13:32;23.90;99.90
1702;DHT22;848;48.354;10.064;2023-08-17T14:15:59;23.50;99.90
1702;DHT22;848;48.354;10.064;2023-08-17T14:18:26;23.20;99.90
1702;DHT22;848;48.354;10.064;2023-08-17T14:20:54;23.10;99.90
1702;DHT22;848;48.354;10.064;2023-08-17T14:23:21;23.10;99.90
1702;DHT22;848;48.354;10.064;2023-08-17T14:25:48;23.20;99.90
1702;DHT22;848;48.354;10.064;2023-08-17T14:28:17;23.10;99.90
1702;DHT22;848;48.354;10.064;2023-08-17T14:30:44;23.00;99.90
1702;DHT22;848;48.354;10.064;2023-08-17T14:33:11;22.90;99.90
1702;DHT22;848;48.354;10.064;2023-08-17T14:35:38;22.80;99.90
1702;DHT22;848;48.354;10.064;2023-08-17T14:38:06;22.60;99.90
1702;DHT22;848;48.354;10.064;2023-08-17T14:40:35;22.70;99.90
1702;DHT22;848;48.354;10.064;2023-08-17T14:43:02;22.60;99.90
1702;DHT22;848;48.354;10.064;2023-08-17T14:45:29;22.60;99.90
1702;DHT22;848;48.354;10.064;2023-08-17T14:47:57;22.60;99.90
1702;DHT22;848;48.354;10.064;2023-08-17T14:50:25;22.50;99.90
1702;DHT22;848;48.354;10.064;2023-08-17T14:52:52;22.30;99.90
1702;DHT22;848;48.354;10.064;2023-08-17T14:55:20;22.20;99.90
1702;DHT22;848;48.354;10.064;2023-08-17T14:57:47;22.10;99.90
1702;DHT22;848;48.354;10.064;2023-08-17T15:00:14;22.10;99.90
1702;DHT22;848;48.354;10.064;2023-08-17T15:02:42;22.00;99.90
1702;DHT22;848;48.354;10.064;2023-08-17T15:05:10;22.00;99.90
1702;DHT22;848;48.354;10.064;2023-08-17T15:07:37;21.90;99.90
1702;DHT22;848;48.354;10.064;2023-08-17T15:10:05;21.90;99.90
1702;DHT22;848;48.354;10.064;2023-08-17T15:12:34;21.90;99.90
1702;DHT22;848;48.354;10.064;2023-08-17T15:15:01;21.90;99.90
1702;DHT22;848;48.354;10.064;2023-08-17T15:17:30;21.90;99.90
1702;DHT22;848;48.354;10.064;2023-08-17T15:19:59;21.80;99.90
1702;DHT22;848;48.354;10.064;2023-08-17T15:22:26;21.70;99.90
1702;DHT22;848;48.354;10.064;2023-08-17T15:24:53;21.70;99.90
1702;DHT22;848;48.354;10.064;2023-08-17T15:27:21;21.70;99.90
1702;DHT22;848;48.354;10.064;2023-08-17T15:29:50;21.70;99.90
1702;DHT22;848;48.354;10.064;2023-08-17T15:32:17;21.60;99.90
1702;DHT22;848;48.354;10.064;2023-08-17T15:34:44;21.70;99.90
1702;DHT22;848;48.354;10.064;2023-08-17T15:37:11;21.60;99.90
1702;DHT22;848;48.354;10.064;2023-08-17T15:39:38;21.60;99.90
1702;DHT22;848;48.354;10.064;2023-08-17T15:42:05;21.60;99.90
1702;DHT22;848;48.354;10.064;2023-08-17T15:44:32;21.50;99.90
1702;DHT22;848;48.354;10.064;2023-08-17T15:47:00;21.40;99.90
1702;DHT22;848;48.354;10.064;2023-08-17T15:49:27;21.30;99.90
1702;DHT22;848;48.354;10.064;2023-08-17T15:51:54;21.40;99.90
1702;DHT22;848;48.354;10.064;2023-08-17T15:54:21;21.50;99.90
1702;DHT22;848;48.354;10.064;2023-08-17T15:56:48;21.50;99.90
1702;DHT22;848;48.354;10.064;2023-08-17T15:59:15;21.60;99.90
1702;DHT22;848;48.354;10.064;2023-08-17T16:01:42;21.50;99.90
1702;DHT22;848;48.354;10.064;2023-08-17T16:04:10;21.50;99.90
1702;DHT22;848;48.354;10.064;2023-08-17T16:06:37;21.50;99.90